createdAt,value
2018-09-03T00:01:33.628Z,6.67
2018-09-03T00:06:38.414Z,7.17
2018-09-03T00:11:42.539Z,6.60
2018-09-03T00:16:46.634Z,6.45
2018-09-03T00:21:50.744Z,6.30
2018-09-03T00:26:54.854Z,6.47
2018-09-03T00:32:04.524Z,6.22
2018-09-03T00:37:14.238Z,7.40
2018-09-03T00:42:23.776Z,6.58
2018-09-03T00:47:28.919Z,6.78
2018-09-03T00:52:33.003Z,7.10
2018-09-03T00:57:37.104Z,6.83
2018-09-03T01:02:41.225Z,7.03
2018-09-03T01:07:45.355Z,7.50
2018-09-03T01:12:50.110Z,7.62
2018-09-03T01:17:54.852Z,8.50
2018-09-03T01:22:59.340Z,7.17
2018-09-03T01:28:03.478Z,7.30
2018-09-03T01:33:08.545Z,7.03
2018-09-03T01:38:13.733Z,7.17
2018-09-03T01:43:17.845Z,7.72
2018-09-03T01:48:22.022Z,7.28
2018-09-03T01:53:26.095Z,7.05
2018-09-03T01:58:30.254Z,7.03
2018-09-03T02:03:34.566Z,8.50
2018-09-03T02:08:38.719Z,8.10
2018-09-03T02:13:43.674Z,9.23
2018-09-03T02:18:47.807Z,9.65
2018-09-03T02:23:51.833Z,10.25
2018-09-03T02:28:56.978Z,10.25
2018-09-03T02:34:01.181Z,10.65
2018-09-03T02:39:07.037Z,10.88
2018-09-03T02:44:11.129Z,10.98
2018-09-03T02:49:15.260Z,11.85
2018-09-03T02:54:19.528Z,10.35
2018-09-03T02:59:23.691Z,10.25
2018-09-03T03:04:27.845Z,10.93
2018-09-03T03:09:32.060Z,12.00
2018-09-03T03:14:36.213Z,11.75
2018-09-03T03:19:40.404Z,10.63
2018-09-03T03:24:44.927Z,10.20
2018-09-03T03:29:48.978Z,9.70
2018-09-03T03:34:53.157Z,10.05
2018-09-03T03:39:57.240Z,11.18
2018-09-03T03:45:01.694Z,11.48
2018-09-03T03:50:05.923Z,9.58
2018-09-03T03:55:10.196Z,8.93
2018-09-03T04:00:14.243Z,8.68
2018-09-03T04:05:18.336Z,9.75
2018-09-03T04:10:22.472Z,10.30
2018-09-03T04:15:27.198Z,10.95
2018-09-03T04:20:31.453Z,10.60
2018-09-03T04:25:35.472Z,11.05
2018-09-03T04:30:39.704Z,10.65
2018-09-03T04:35:43.855Z,9.98
2018-09-03T04:40:48.600Z,10.20
2018-09-03T04:45:52.710Z,11.78
2018-09-03T04:50:57.594Z,12.10
2018-09-03T04:56:01.796Z,11.10
2018-09-03T05:01:06.512Z,11.97
2018-09-03T05:06:10.823Z,11.45
2018-09-03T05:11:15.072Z,11.35
2018-09-03T05:16:19.343Z,9.73
2018-09-03T05:21:23.759Z,10.78
2018-09-03T05:26:28.106Z,14.10
2018-09-03T05:31:32.269Z,10.15
2018-09-03T05:36:36.567Z,10.48
2018-09-03T05:41:40.935Z,10.65
2018-09-03T05:46:45.121Z,10.43
2018-09-03T05:51:49.340Z,11.38
2018-09-03T05:56:53.530Z,11.53
2018-09-03T06:01:58.318Z,10.72
2018-09-03T06:07:02.981Z,10.65
2018-09-03T06:12:07.261Z,11.25
2018-09-03T06:17:11.342Z,10.45
2018-09-03T06:22:16.081Z,10.43
2018-09-03T06:27:20.987Z,10.78
2018-09-03T06:32:25.184Z,11.30
2018-09-03T06:37:29.242Z,9.58
2018-09-03T06:42:33.416Z,11.08
2018-09-03T06:47:37.595Z,10.48
2018-09-03T06:52:41.781Z,12.55
2018-09-03T06:57:45.964Z,11.43
2018-09-03T07:02:50.174Z,11.33
2018-09-03T07:07:54.413Z,11.38
2018-09-03T07:12:59.015Z,13.53
2018-09-03T07:18:03.555Z,13.03
2018-09-03T07:23:07.660Z,15.20
2018-09-03T07:28:11.819Z,12.40
2018-09-03T07:33:16.002Z,11.50
2018-09-03T07:38:20.120Z,11.43
2018-09-03T07:43:25.181Z,12.47
2018-09-03T07:48:29.469Z,11.38
2018-09-03T07:53:34.333Z,12.60
2018-09-03T07:58:39.109Z,11.73
2018-09-03T08:03:43.216Z,12.10
2018-09-03T08:08:50.037Z,10.80
2018-09-03T08:13:54.259Z,11.48
2018-09-03T08:18:58.805Z,10.80
2018-09-03T08:24:03.193Z,11.85
2018-09-03T08:29:07.911Z,10.78
2018-09-03T08:34:12.900Z,10.65
2018-09-03T08:39:17.037Z,11.55
2018-09-03T08:44:21.093Z,12.95
2018-09-03T08:49:26.114Z,11.53
2018-09-03T08:54:30.222Z,12.15
2018-09-03T08:59:34.298Z,11.48
2018-09-03T09:04:38.966Z,12.33
2018-09-03T09:09:43.480Z,12.78
2018-09-03T09:14:47.792Z,12.00
2018-09-03T09:19:51.985Z,10.53
2018-09-03T09:24:56.718Z,11.03
2018-09-03T09:30:00.747Z,9.88
2018-09-03T09:35:04.872Z,12.33
2018-09-03T09:40:08.966Z,11.73
2018-09-03T09:45:13.182Z,11.90
2018-09-03T09:50:17.325Z,12.07
2018-09-03T09:55:22.375Z,11.73
2018-09-03T10:00:31.758Z,10.98
2018-09-03T10:05:35.801Z,11.40
2018-09-03T10:10:41.056Z,12.45
2018-09-03T10:15:45.175Z,10.55
2018-09-03T10:20:49.814Z,9.93
2018-09-03T10:25:53.920Z,12.58
2018-09-03T10:30:58.050Z,10.40
2018-09-03T10:36:02.251Z,9.60
2018-09-03T10:41:06.654Z,10.15
2018-09-03T10:46:10.818Z,10.90
2018-09-03T10:51:14.957Z,10.35
2018-09-03T10:56:19.060Z,10.25
2018-09-03T11:01:23.142Z,10.15
2018-09-03T11:06:27.262Z,10.60
2018-09-03T11:11:31.476Z,8.85
2018-09-03T11:16:36.680Z,8.38
2018-09-03T11:21:40.971Z,9.83
2018-09-03T11:26:45.021Z,9.50
2018-09-03T11:31:49.106Z,7.85
2018-09-03T11:36:53.241Z,9.20
2018-09-03T11:41:57.418Z,7.50
2018-09-03T11:47:01.780Z,8.25
2018-09-03T11:52:05.841Z,7.50
2018-09-03T11:57:10.755Z,7.78
2018-09-03T12:02:15.512Z,8.50
2018-09-03T12:07:19.831Z,7.80
2018-09-03T12:12:23.963Z,7.42
2018-09-03T12:17:28.074Z,7.35
2018-09-03T12:22:32.185Z,6.30
2018-09-03T12:27:36.419Z,7.33
2018-09-03T12:32:40.533Z,7.87
2018-09-03T12:37:44.696Z,7.65
2018-09-03T12:42:48.818Z,6.28
2018-09-03T12:47:53.441Z,6.10
2018-09-03T12:52:58.608Z,6.78
2018-09-03T12:58:05.822Z,6.62
2018-09-03T13:03:10.893Z,5.30
2018-09-03T13:08:15.285Z,6.92
2018-09-03T13:13:19.381Z,5.97
2018-09-03T13:18:23.522Z,6.50
2018-09-03T13:23:27.682Z,5.28
2018-09-03T13:28:32.299Z,5.65
2018-09-03T13:33:36.435Z,5.62
2018-09-03T13:38:40.582Z,6.08
2018-09-03T13:43:45.064Z,5.92
2018-09-03T13:48:49.132Z,6.45
2018-09-03T13:53:53.222Z,5.25
2018-09-03T13:58:58.200Z,5.67
2018-09-03T14:04:02.425Z,5.08
2018-09-03T14:09:07.460Z,4.50
2018-09-03T14:14:11.586Z,4.90
2018-09-03T14:19:15.788Z,4.92
2018-09-03T14:24:19.845Z,5.65
2018-09-03T14:29:24.057Z,5.22
2018-09-03T14:34:28.171Z,5.70
2018-09-03T14:39:32.359Z,5.15
2018-09-03T14:44:36.374Z,4.30
2018-09-03T14:49:40.930Z,4.20
2018-09-03T14:54:45.033Z,5.72
2018-09-03T14:59:49.235Z,4.55
2018-09-03T15:04:53.677Z,4.15
2018-09-03T15:09:57.815Z,4.78
2018-09-03T15:15:01.953Z,4.00
2018-09-03T15:20:06.717Z,4.30
2018-09-03T15:25:11.095Z,3.33
2018-09-03T15:30:15.221Z,3.52
2018-09-03T15:35:20.096Z,2.95
2018-09-03T15:40:24.425Z,3.65
2018-09-03T15:45:28.577Z,3.67
2018-09-03T15:50:32.844Z,2.70
2018-09-03T15:55:36.932Z,2.80
2018-09-03T16:00:41.170Z,2.90
2018-09-03T16:05:45.489Z,3.20
2018-09-03T16:10:49.685Z,5.25
2018-09-03T16:15:54.469Z,2.58
2018-09-03T16:20:58.722Z,3.00
2018-09-03T16:26:03.079Z,2.85
2018-09-03T16:31:07.318Z,3.75
2018-09-03T16:36:11.487Z,2.55
2018-09-03T16:41:15.849Z,2.50
2018-09-03T16:46:19.989Z,2.72
2018-09-03T16:51:24.049Z,2.40
2018-09-03T16:56:29.638Z,2.83
2018-09-03T17:01:35.033Z,3.05
2018-09-03T17:06:39.127Z,3.08
2018-09-03T17:11:43.491Z,2.83
2018-09-03T17:16:47.715Z,2.70
2018-09-03T17:21:51.898Z,2.95
2018-09-03T17:26:55.945Z,3.20
2018-09-03T17:32:00.091Z,2.95
2018-09-03T17:37:05.386Z,2.87
2018-09-03T17:42:09.510Z,3.10
2018-09-03T17:47:13.729Z,2.62
2018-09-03T17:52:17.987Z,3.87
2018-09-03T17:57:22.116Z,3.05
2018-09-03T18:02:26.282Z,3.15
2018-09-03T18:07:30.345Z,3.65
2018-09-03T18:12:34.489Z,4.83
2018-09-03T18:17:39.143Z,3.35
2018-09-03T18:22:43.351Z,2.90
2018-09-03T18:27:47.600Z,2.85
2018-09-03T18:32:51.830Z,3.33
2018-09-03T18:37:56.634Z,3.30
2018-09-03T18:43:01.247Z,3.67
2018-09-03T18:48:06.163Z,3.52
2018-09-03T18:53:10.391Z,4.80
2018-09-03T18:58:14.535Z,3.75
2018-09-03T19:03:18.772Z,3.40
2018-09-03T19:08:22.902Z,3.40
2018-09-03T19:13:27.141Z,3.33
2018-09-03T19:18:31.362Z,3.30
2018-09-03T19:23:35.476Z,3.80
2018-09-03T19:28:39.586Z,3.58
2018-09-03T19:33:43.811Z,3.47
2018-09-03T19:38:48.170Z,4.70
2018-09-03T19:43:52.254Z,3.60
2018-09-03T19:48:56.467Z,3.45
2018-09-03T19:54:00.584Z,3.85
2018-09-03T19:59:04.946Z,3.80
2018-09-03T20:04:09.127Z,3.75
2018-09-03T20:09:13.275Z,3.60
2018-09-03T20:14:17.378Z,3.40
2018-09-03T20:19:21.592Z,3.83
2018-09-03T20:24:25.741Z,3.52
2018-09-03T20:29:29.854Z,3.40
2018-09-03T20:34:33.876Z,4.15
2018-09-03T20:39:38.295Z,4.35
2018-09-03T20:44:42.416Z,4.10
2018-09-03T20:49:46.514Z,4.22
2018-09-03T20:54:51.281Z,4.70
2018-09-03T20:59:55.483Z,4.75
2018-09-03T21:04:59.664Z,4.42
2018-09-03T21:10:03.977Z,4.75
2018-09-03T21:15:11.316Z,4.37
2018-09-03T21:20:15.680Z,4.70
2018-09-03T21:25:19.887Z,4.78
2018-09-03T21:30:24.167Z,4.35
2018-09-03T21:35:29.532Z,4.62
2018-09-03T21:40:33.759Z,4.97
2018-09-03T21:45:38.390Z,4.92
2018-09-03T21:50:42.692Z,5.40
2018-09-03T21:55:47.057Z,4.80
2018-09-03T22:00:51.134Z,4.87
2018-09-03T22:05:56.021Z,5.00
2018-09-03T22:11:00.080Z,5.55
2018-09-03T22:16:04.289Z,5.53
2018-09-03T22:21:08.504Z,5.03
2018-09-03T22:26:12.573Z,4.90
2018-09-03T22:31:16.738Z,5.42
2018-09-03T22:36:20.789Z,4.83
2018-09-03T22:41:24.866Z,5.17
2018-09-03T22:46:29.069Z,5.12
2018-09-03T22:51:33.177Z,5.70
2018-09-03T22:56:38.105Z,4.97
2018-09-03T23:01:42.317Z,4.62
2018-09-03T23:06:46.461Z,4.97
2018-09-03T23:11:50.632Z,5.03
2018-09-03T23:16:55.095Z,4.30
2018-09-03T23:21:59.354Z,4.87
2018-09-03T23:27:04.271Z,4.83
2018-09-03T23:32:09.030Z,5.00
2018-09-03T23:37:13.183Z,4.65
2018-09-03T23:42:17.229Z,4.53
2018-09-03T23:47:21.299Z,4.30
2018-09-03T23:52:25.394Z,4.65
2018-09-03T23:57:29.580Z,4.95
